createdAt,value
2018-09-02T00:00:27.495Z,56.34
2018-09-02T00:02:55.202Z,56.24
2018-09-02T00:05:22.876Z,56.30
2018-09-02T00:07:50.579Z,56.69
2018-09-02T00:10:18.264Z,56.43
2018-09-02T00:12:46.686Z,56.77
2018-09-02T00:15:14.386Z,57.18
2018-09-02T00:17:42.130Z,57.08
2018-09-02T00:20:09.814Z,56.29
2018-09-02T00:22:37.559Z,56.69
2018-09-02T00:25:05.275Z,56.22
2018-09-02T00:27:32.934Z,57.37
2018-09-02T00:30:00.640Z,57.22
2018-09-02T00:32:28.422Z,57.54
2018-09-02T00:34:56.094Z,57.62
2018-09-02T00:37:24.155Z,57.37
2018-09-02T00:39:51.806Z,58.09
2018-09-02T00:42:19.481Z,59.26
2018-09-02T00:44:47.199Z,59.04
2018-09-02T00:47:14.865Z,58.99
2018-09-02T00:49:42.572Z,58.35
2018-09-02T00:52:10.293Z,59.02
2018-09-02T00:54:37.983Z,59.37
2018-09-02T00:57:05.683Z,60.13
2018-09-02T00:59:33.438Z,60.24
2018-09-02T01:02:01.125Z,61.44
2018-09-02T01:04:28.796Z,64.71
2018-09-02T01:06:56.486Z,64.73
2018-09-02T01:09:24.155Z,64.97
2018-09-02T01:11:51.811Z,64.94
2018-09-02T01:14:19.496Z,65.92
2018-09-02T01:16:47.163Z,68.31
2018-09-02T01:19:14.835Z,67.08
2018-09-02T01:21:42.578Z,67.52
2018-09-02T01:24:10.272Z,67.41
2018-09-02T01:26:37.933Z,66.58
2018-09-02T01:29:05.613Z,66.80
2018-09-02T01:31:33.293Z,66.98
2018-09-02T01:34:01.009Z,66.83
2018-09-02T01:36:28.700Z,66.90
2018-09-02T01:38:56.529Z,66.58
2018-09-02T01:41:24.189Z,66.28
2018-09-02T01:43:51.883Z,67.13
2018-09-02T01:46:19.555Z,67.11
2018-09-02T01:48:47.190Z,67.53
2018-09-02T01:51:14.887Z,67.17
2018-09-02T01:53:42.550Z,67.35
2018-09-02T01:56:10.222Z,66.73
2018-09-02T01:58:37.942Z,66.13
2018-09-02T02:01:06.027Z,66.45
2018-09-02T02:03:33.713Z,65.89
2018-09-02T02:06:01.406Z,65.96
2018-09-02T02:08:29.045Z,65.26
2018-09-02T02:10:56.704Z,64.78
2018-09-02T02:13:24.389Z,64.64
2018-09-02T02:15:52.030Z,63.87
2018-09-02T02:18:19.699Z,63.87
2018-09-02T02:20:47.448Z,63.57
2018-09-02T02:23:15.153Z,63.03
2018-09-02T02:25:42.814Z,63.86
2018-09-02T02:28:10.493Z,63.39
2018-09-02T02:30:38.179Z,63.48
2018-09-02T02:33:05.853Z,64.42
2018-09-02T02:35:33.549Z,65.73
2018-09-02T02:38:01.210Z,65.18
2018-09-02T02:40:28.873Z,65.60
2018-09-02T02:42:56.570Z,65.34
2018-09-02T02:45:24.212Z,65.47
2018-09-02T02:47:51.865Z,65.46
2018-09-02T02:50:19.610Z,66.40
2018-09-02T02:52:52.693Z,66.67
2018-09-02T02:55:20.399Z,66.88
2018-09-02T02:57:48.068Z,66.39
2018-09-02T03:00:15.730Z,66.53
2018-09-02T03:02:43.412Z,66.09
2018-09-02T03:05:11.084Z,65.90
2018-09-02T03:07:38.737Z,66.07
2018-09-02T03:10:06.514Z,66.11
2018-09-02T03:12:34.190Z,65.70
2018-09-02T03:15:01.899Z,64.87
2018-09-02T03:17:29.602Z,64.56
2018-09-02T03:19:57.322Z,62.68
2018-09-02T03:22:25.231Z,62.59
2018-09-02T03:24:52.929Z,62.14
2018-09-02T03:27:20.593Z,62.39
2018-09-02T03:29:48.271Z,62.24
2018-09-02T03:32:15.986Z,61.80
2018-09-02T03:34:43.663Z,61.24
2018-09-02T03:37:11.334Z,62.20
2018-09-02T03:39:39.039Z,62.59
2018-09-02T03:42:06.875Z,62.18
2018-09-02T03:44:34.613Z,63.35
2018-09-02T03:47:02.310Z,64.69
2018-09-02T03:49:29.969Z,66.44
2018-09-02T03:51:57.633Z,67.07
2018-09-02T03:54:25.315Z,68.12
2018-09-02T03:56:53.002Z,68.04
2018-09-02T03:59:20.770Z,68.64
2018-09-02T04:01:48.453Z,69.99
2018-09-02T04:04:16.130Z,69.31
2018-09-02T04:06:43.809Z,69.39
2018-09-02T04:09:11.770Z,68.12
2018-09-02T04:11:39.781Z,68.39
2018-09-02T04:14:07.584Z,67.37
2018-09-02T04:16:35.762Z,67.07
2018-09-02T04:19:03.889Z,65.38
2018-09-02T04:21:31.572Z,63.74
2018-09-02T04:23:59.298Z,59.66
2018-09-02T04:26:26.945Z,57.87
2018-09-02T04:28:54.702Z,54.53
2018-09-02T04:31:22.647Z,52.45
2018-09-02T04:33:50.427Z,50.73
2018-09-02T04:36:18.061Z,48.36
2018-09-02T04:38:45.751Z,46.74
2018-09-02T04:41:13.474Z,44.52
2018-09-02T04:43:41.123Z,43.95
2018-09-02T04:46:08.806Z,44.87
2018-09-02T04:48:36.492Z,46.16
2018-09-02T04:51:04.153Z,43.52
2018-09-02T04:53:31.849Z,43.38
2018-09-02T04:55:59.615Z,44.50
2018-09-02T04:58:27.252Z,44.06
2018-09-02T05:00:54.947Z,45.66
2018-09-02T05:03:22.623Z,45.35
2018-09-02T05:05:50.281Z,43.36
2018-09-02T05:08:17.953Z,41.03
2018-09-02T05:10:45.626Z,41.53
2018-09-02T05:13:13.406Z,44.66
2018-09-02T05:15:41.105Z,44.15
2018-09-02T05:18:08.872Z,40.67
2018-09-02T05:20:36.547Z,41.07
2018-09-02T05:23:04.350Z,40.93
2018-09-02T05:25:32.009Z,40.06
2018-09-02T05:27:59.857Z,43.57
2018-09-02T05:30:27.653Z,45.15
2018-09-02T05:32:55.371Z,47.82
2018-09-02T05:35:23.022Z,46.81
2018-09-02T05:37:50.760Z,45.96
2018-09-02T05:40:18.422Z,45.85
2018-09-02T05:42:46.102Z,45.83
2018-09-02T05:45:13.808Z,45.90
2018-09-02T05:47:41.458Z,44.29
2018-09-02T05:50:09.154Z,44.56
2018-09-02T05:52:36.831Z,45.31
2018-09-02T05:55:04.905Z,45.26
2018-09-02T05:57:32.634Z,45.13
2018-09-02T06:00:00.345Z,42.83
2018-09-02T06:02:28.022Z,40.30
2018-09-02T06:04:55.720Z,40.68
2018-09-02T06:07:23.439Z,40.08
2018-09-02T06:09:51.141Z,39.81
2018-09-02T06:12:18.847Z,37.89
2018-09-02T06:14:46.555Z,37.62
2018-09-02T06:17:14.339Z,38.59
2018-09-02T06:19:42.023Z,38.24
2018-09-02T06:22:09.718Z,37.43
2018-09-02T06:24:37.407Z,37.92
2018-09-02T06:27:05.450Z,37.42
2018-09-02T06:29:33.134Z,36.17
2018-09-02T06:32:00.802Z,35.87
2018-09-02T06:34:28.474Z,35.47
2018-09-02T06:36:56.166Z,33.44
2018-09-02T06:39:23.900Z,33.85
2018-09-02T06:41:51.543Z,37.07
2018-09-02T06:44:19.235Z,34.70
2018-09-02T06:46:46.902Z,33.33
2018-09-02T06:49:14.558Z,35.11
2018-09-02T06:51:42.249Z,35.29
2018-09-02T06:54:10.041Z,34.66
2018-09-02T06:56:37.695Z,35.20
2018-09-02T06:59:05.411Z,36.33
2018-09-02T07:01:33.074Z,35.04
2018-09-02T07:04:00.758Z,35.34
2018-09-02T07:06:28.802Z,33.66
2018-09-02T07:08:56.490Z,34.06
2018-09-02T07:11:24.192Z,34.55
2018-09-02T07:13:51.893Z,37.56
2018-09-02T07:16:19.596Z,39.95
2018-09-02T07:18:47.288Z,41.04
2018-09-02T07:21:14.987Z,42.13
2018-09-02T07:23:42.668Z,42.81
2018-09-02T07:26:10.372Z,42.63
2018-09-02T07:28:38.069Z,41.88
2018-09-02T07:31:05.811Z,42.27
2018-09-02T07:33:33.502Z,42.50
2018-09-02T07:36:01.223Z,42.07
2018-09-02T07:38:28.986Z,39.37
2018-09-02T07:40:56.669Z,39.98
2018-09-02T07:43:24.457Z,40.64
2018-09-02T07:45:52.146Z,40.90
2018-09-02T07:48:19.808Z,40.42
2018-09-02T07:50:47.507Z,39.87
2018-09-02T07:53:15.177Z,39.38
2018-09-02T07:55:42.884Z,40.17
2018-09-02T07:58:10.982Z,40.70
2018-09-02T08:00:38.885Z,39.52
2018-09-02T08:03:06.596Z,40.46
2018-09-02T08:05:34.351Z,39.90
2018-09-02T08:08:02.084Z,38.78
2018-09-02T08:10:29.806Z,39.05
2018-09-02T08:12:57.675Z,37.94
2018-09-02T08:15:25.263Z,37.03
2018-09-02T08:17:52.943Z,38.16
2018-09-02T08:20:20.666Z,36.63
2018-09-02T08:22:48.477Z,36.90
2018-09-02T08:25:16.162Z,37.22
2018-09-02T08:27:44.025Z,37.99
2018-09-02T08:30:11.742Z,38.40
2018-09-02T08:32:39.439Z,35.46
2018-09-02T08:35:07.133Z,37.36
2018-09-02T08:37:34.850Z,34.12
2018-09-02T08:40:02.574Z,34.28
2018-09-02T08:42:30.257Z,36.06
2018-09-02T08:44:58.077Z,34.08
2018-09-02T08:47:25.763Z,33.65
2018-09-02T08:49:53.461Z,33.70
2018-09-02T08:52:21.165Z,30.01
2018-09-02T08:54:48.847Z,30.82
2018-09-02T08:57:16.546Z,31.02
2018-09-02T08:59:44.222Z,31.09
2018-09-02T09:02:11.935Z,30.07
2018-09-02T09:04:39.665Z,29.89
2018-09-02T09:07:07.415Z,30.78
2018-09-02T09:09:35.130Z,29.79
2018-09-02T09:12:02.933Z,28.39
2018-09-02T09:14:30.611Z,29.47
2018-09-02T09:16:58.394Z,27.79
2018-09-02T09:19:26.258Z,27.21
2018-09-02T09:21:54.012Z,26.31
2018-09-02T09:24:21.706Z,28.10
2018-09-02T09:26:49.485Z,27.35
2018-09-02T09:29:17.224Z,26.55
2018-09-02T09:31:44.959Z,26.84
2018-09-02T09:34:12.657Z,27.42
2018-09-02T09:36:40.381Z,27.44
2018-09-02T09:39:09.436Z,27.52
2018-09-02T09:41:37.178Z,28.19
2018-09-02T09:44:04.873Z,28.01
2018-09-02T09:46:32.797Z,28.46
2018-09-02T09:49:00.505Z,28.23
2018-09-02T09:51:28.252Z,28.47
2018-09-02T09:53:56.006Z,28.98
2018-09-02T09:56:23.757Z,30.65
2018-09-02T09:58:51.430Z,28.07
2018-09-02T10:01:19.156Z,27.03
2018-09-02T10:03:46.955Z,26.68
2018-09-02T10:06:14.732Z,26.78
2018-09-02T10:08:42.429Z,29.29
2018-09-02T10:11:10.210Z,27.86
2018-09-02T10:13:37.920Z,27.12
2018-09-02T10:16:05.717Z,26.72
2018-09-02T10:18:33.548Z,25.86
2018-09-02T10:21:01.245Z,24.97
2018-09-02T10:23:28.953Z,24.41
2018-09-02T10:25:56.657Z,24.14
2018-09-02T10:28:24.401Z,25.08
2018-09-02T10:30:52.184Z,24.95
2018-09-02T10:33:20.001Z,25.42
2018-09-02T10:35:47.712Z,23.10
2018-09-02T10:38:15.420Z,23.79
2018-09-02T10:40:43.165Z,24.59
2018-09-02T10:43:10.831Z,25.87
2018-09-02T10:45:38.692Z,24.67
2018-09-02T10:48:06.556Z,24.68
2018-09-02T10:50:34.327Z,26.11
2018-09-02T10:53:02.046Z,26.12
2018-09-02T10:55:30.019Z,24.54
2018-09-02T10:57:57.763Z,23.15
2018-09-02T11:00:25.477Z,22.26
2018-09-02T11:02:53.239Z,22.48
2018-09-02T11:05:20.955Z,22.27
2018-09-02T11:07:52.830Z,22.26
2018-09-02T11:10:20.785Z,22.11
2018-09-02T11:12:48.473Z,24.17
2018-09-02T11:15:16.339Z,21.38
2018-09-02T11:17:44.169Z,23.00
2018-09-02T11:20:12.001Z,22.87
2018-09-02T11:22:39.714Z,22.54
2018-09-02T11:25:07.393Z,22.45
2018-09-02T11:27:35.080Z,22.99
2018-09-02T11:30:02.786Z,21.99
2018-09-02T11:32:31.219Z,22.57
2018-09-02T11:34:58.893Z,23.50
2018-09-02T11:37:26.601Z,22.93
2018-09-02T11:39:54.349Z,22.55
2018-09-02T11:42:22.042Z,23.19
2018-09-02T11:44:49.721Z,22.61
2018-09-02T11:47:17.481Z,23.26
2018-09-02T11:49:45.324Z,22.67
2018-09-02T11:52:13.064Z,22.31
2018-09-02T11:54:40.818Z,21.16
2018-09-02T11:57:09.472Z,20.52
2018-09-02T11:59:37.179Z,20.69
2018-09-02T12:02:04.973Z,20.82
2018-09-02T12:04:32.690Z,21.73
2018-09-02T12:07:00.357Z,21.88
2018-09-02T12:09:28.219Z,21.44
2018-09-02T12:11:55.983Z,22.04
2018-09-02T12:14:23.743Z,19.93
2018-09-02T12:16:51.506Z,19.58
2018-09-02T12:19:19.228Z,19.87
2018-09-02T12:21:47.048Z,20.78
2018-09-02T12:24:14.865Z,21.26
2018-09-02T12:26:43.533Z,18.53
2018-09-02T12:29:11.306Z,18.21
2018-09-02T12:31:39.093Z,18.47
2018-09-02T12:34:06.809Z,18.70
2018-09-02T12:36:34.554Z,17.05
2018-09-02T12:39:02.337Z,17.20
2018-09-02T12:41:30.005Z,18.26
2018-09-02T12:43:57.709Z,19.62
2018-09-02T12:46:25.453Z,19.57
2018-09-02T12:48:53.183Z,18.86
2018-09-02T12:51:21.011Z,18.40
2018-09-02T12:53:48.762Z,18.55
2018-09-02T12:56:16.427Z,17.39
2018-09-02T12:58:44.111Z,17.58
2018-09-02T13:01:11.934Z,16.88
2018-09-02T13:03:39.716Z,16.41
2018-09-02T13:06:07.448Z,16.33
2018-09-02T13:08:35.176Z,16.65
2018-09-02T13:11:02.899Z,17.35
2018-09-02T13:13:30.623Z,18.32
2018-09-02T13:15:58.334Z,19.93
2018-09-02T13:18:26.041Z,19.09
2018-09-02T13:20:53.737Z,19.76
2018-09-02T13:23:21.488Z,19.38
2018-09-02T13:25:49.209Z,18.70
2018-09-02T13:28:16.972Z,19.08
2018-09-02T13:30:44.697Z,18.52
2018-09-02T13:33:12.401Z,17.80
2018-09-02T13:35:40.130Z,17.29
2018-09-02T13:38:07.883Z,18.61
2018-09-02T13:40:35.602Z,20.07
2018-09-02T13:43:03.467Z,20.41
2018-09-02T13:45:31.210Z,20.85
2018-09-02T13:47:58.896Z,20.73
2018-09-02T13:50:26.627Z,21.34
2018-09-02T13:52:54.428Z,22.31
2018-09-02T13:55:22.184Z,21.41
2018-09-02T13:57:49.978Z,22.35
2018-09-02T14:00:17.746Z,22.37
2018-09-02T14:02:45.579Z,23.17
2018-09-02T14:05:13.288Z,21.83
2018-09-02T14:07:41.044Z,21.52
2018-09-02T14:10:08.812Z,21.37
2018-09-02T14:12:36.673Z,22.01
2018-09-02T14:15:04.952Z,22.44
2018-09-02T14:17:32.653Z,22.77
2018-09-02T14:20:00.391Z,22.77
2018-09-02T14:22:28.141Z,22.08
2018-09-02T14:24:55.862Z,22.19
2018-09-02T14:27:24.551Z,22.97
2018-09-02T14:29:52.446Z,22.22
2018-09-02T14:32:22.172Z,23.29
2018-09-02T14:34:49.910Z,22.41
2018-09-02T14:37:17.661Z,22.17
2018-09-02T14:39:45.363Z,22.57
2018-09-02T14:42:13.092Z,22.21
2018-09-02T14:44:40.860Z,21.96
2018-09-02T14:47:08.588Z,23.06
2018-09-02T14:49:36.372Z,23.31
2018-09-02T14:52:04.148Z,22.25
2018-09-02T14:54:31.923Z,21.83
2018-09-02T14:56:59.602Z,21.54
2018-09-02T14:59:27.377Z,21.83
2018-09-02T15:01:55.085Z,22.84
2018-09-02T15:04:22.886Z,20.99
2018-09-02T15:06:50.636Z,21.64
2018-09-02T15:09:18.329Z,21.64
2018-09-02T15:11:46.033Z,22.64
2018-09-02T15:14:13.942Z,22.85
2018-09-02T15:16:41.757Z,23.76
2018-09-02T15:19:09.527Z,22.52
2018-09-02T15:21:37.257Z,23.16
2018-09-02T15:24:04.994Z,23.00
2018-09-02T15:26:32.705Z,23.27
2018-09-02T15:29:00.472Z,23.53
2018-09-02T15:31:28.202Z,23.67
2018-09-02T15:33:55.926Z,23.16
2018-09-02T15:36:23.682Z,23.71
2018-09-02T15:38:51.399Z,23.08
2018-09-02T15:41:19.077Z,23.62
2018-09-02T15:43:46.913Z,22.49
2018-09-02T15:46:14.577Z,23.08
2018-09-02T15:48:42.401Z,23.80
2018-09-02T15:51:10.120Z,23.45
2018-09-02T15:53:37.844Z,23.92
2018-09-02T15:56:05.700Z,24.66
2018-09-02T15:58:33.489Z,23.90
2018-09-02T16:01:01.350Z,23.98
2018-09-02T16:03:29.073Z,24.88
2018-09-02T16:05:56.805Z,24.72
2018-09-02T16:08:24.527Z,24.87
2018-09-02T16:10:53.554Z,25.50
2018-09-02T16:13:21.301Z,25.93
2018-09-02T16:15:48.996Z,26.03
2018-09-02T16:18:16.717Z,25.53
2018-09-02T16:20:44.457Z,25.76
2018-09-02T16:23:12.190Z,26.05
2018-09-02T16:25:39.930Z,26.06
2018-09-02T16:28:07.648Z,26.24
2018-09-02T16:30:35.448Z,26.16
2018-09-02T16:33:03.161Z,27.21
2018-09-02T16:35:30.965Z,27.18
2018-09-02T16:37:58.658Z,29.39
2018-09-02T16:40:26.397Z,30.07
2018-09-02T16:42:54.165Z,30.75
2018-09-02T16:45:21.828Z,30.83
2018-09-02T16:47:49.545Z,31.61
2018-09-02T16:50:17.290Z,32.75
2018-09-02T16:52:45.009Z,33.26
2018-09-02T16:55:12.716Z,33.59
2018-09-02T16:57:40.450Z,33.83
2018-09-02T17:00:08.370Z,33.93
2018-09-02T17:02:36.136Z,34.75
2018-09-02T17:05:06.501Z,34.40
2018-09-02T17:07:34.211Z,34.07
2018-09-02T17:10:02.001Z,33.67
2018-09-02T17:12:29.842Z,34.78
2018-09-02T17:14:57.419Z,34.92
2018-09-02T17:17:25.393Z,35.39
2018-09-02T17:19:55.654Z,35.20
2018-09-02T17:22:23.386Z,35.92
2018-09-02T17:24:51.226Z,35.66
2018-09-02T17:27:18.996Z,36.78
2018-09-02T17:29:46.986Z,36.96
2018-09-02T17:32:16.904Z,37.11
2018-09-02T17:34:45.525Z,36.84
2018-09-02T17:37:13.300Z,37.91
2018-09-02T17:39:41.092Z,37.52
2018-09-02T17:42:08.854Z,37.49
2018-09-02T17:44:36.651Z,37.87
2018-09-02T17:47:04.378Z,37.64
2018-09-02T17:49:32.135Z,37.03
2018-09-02T17:51:59.899Z,37.54
2018-09-02T17:54:27.732Z,37.86
2018-09-02T17:56:55.467Z,38.08
2018-09-02T17:59:23.195Z,37.07
2018-09-02T18:01:51.600Z,37.98
2018-09-02T18:04:19.612Z,37.69
2018-09-02T18:06:47.340Z,38.34
2018-09-02T18:09:15.058Z,38.37
2018-09-02T18:11:42.798Z,38.47
2018-09-02T18:14:10.501Z,38.13
2018-09-02T18:16:38.765Z,39.34
2018-09-02T18:19:06.606Z,38.68
2018-09-02T18:21:34.413Z,39.63
2018-09-02T18:24:02.073Z,39.76
2018-09-02T18:26:29.830Z,39.78
2018-09-02T18:28:57.517Z,38.42
2018-09-02T18:31:25.211Z,38.11
2018-09-02T18:33:52.936Z,39.39
2018-09-02T18:36:20.704Z,38.97
2018-09-02T18:38:48.444Z,38.89
2018-09-02T18:41:16.170Z,40.00
2018-09-02T18:43:43.962Z,40.40
2018-09-02T18:46:12.126Z,39.12
2018-09-02T18:48:39.870Z,39.58
2018-09-02T18:51:07.578Z,39.72
2018-09-02T18:53:35.342Z,40.67
2018-09-02T18:56:03.226Z,40.75
2018-09-02T18:58:31.220Z,40.05
2018-09-02T19:00:58.933Z,39.84
2018-09-02T19:03:26.657Z,41.03
2018-09-02T19:05:54.369Z,41.01
2018-09-02T19:08:22.061Z,41.42
2018-09-02T19:10:49.790Z,41.53
2018-09-02T19:13:17.493Z,40.59
2018-09-02T19:15:45.212Z,40.49
2018-09-02T19:18:12.925Z,39.82
2018-09-02T19:20:40.631Z,41.15
2018-09-02T19:23:08.325Z,40.48
2018-09-02T19:25:36.109Z,40.87
2018-09-02T19:28:03.860Z,41.11
2018-09-02T19:30:31.549Z,41.28
2018-09-02T19:32:59.292Z,40.97
2018-09-02T19:35:26.989Z,41.35
2018-09-02T19:37:54.742Z,41.56
2018-09-02T19:40:22.520Z,41.08
2018-09-02T19:42:50.241Z,42.03
2018-09-02T19:45:17.932Z,41.55
2018-09-02T19:47:45.683Z,41.28
2018-09-02T19:50:13.421Z,41.01
2018-09-02T19:52:41.101Z,40.76
2018-09-02T19:55:08.893Z,40.18
2018-09-02T19:57:36.635Z,40.91
2018-09-02T20:00:04.562Z,39.73
2018-09-02T20:02:32.328Z,39.37
2018-09-02T20:05:00.057Z,38.92
2018-09-02T20:07:27.765Z,39.22
2018-09-02T20:09:55.449Z,39.53
2018-09-02T20:12:23.278Z,39.34
2018-09-02T20:14:50.955Z,39.87
2018-09-02T20:17:18.690Z,39.58
2018-09-02T20:19:46.404Z,40.35
2018-09-02T20:22:14.559Z,39.80
2018-09-02T20:24:42.399Z,39.83
2018-09-02T20:27:10.133Z,40.58
2018-09-02T20:29:38.356Z,39.99
2018-09-02T20:32:06.144Z,41.31
2018-09-02T20:34:33.880Z,41.12
2018-09-02T20:37:01.632Z,40.99
2018-09-02T20:39:29.409Z,40.45
2018-09-02T20:41:57.107Z,40.68
2018-09-02T20:44:24.813Z,41.46
2018-09-02T20:46:52.802Z,40.77
2018-09-02T20:49:20.501Z,40.31
2018-09-02T20:51:48.210Z,41.43
2018-09-02T20:54:15.944Z,41.89
2018-09-02T20:56:43.655Z,41.43
2018-09-02T20:59:11.437Z,41.35
2018-09-02T21:01:39.331Z,41.17
2018-09-02T21:04:07.144Z,42.15
2018-09-02T21:06:34.889Z,40.99
2018-09-02T21:09:03.302Z,42.23
2018-09-02T21:11:31.078Z,41.73
2018-09-02T21:13:58.773Z,43.10
2018-09-02T21:16:26.507Z,43.00
2018-09-02T21:18:54.208Z,43.31
2018-09-02T21:21:22.841Z,43.57
2018-09-02T21:23:50.545Z,43.96
2018-09-02T21:26:18.223Z,44.48
2018-09-02T21:28:46.027Z,44.85
2018-09-02T21:31:14.035Z,45.68
2018-09-02T21:33:41.705Z,45.41
2018-09-02T21:36:09.373Z,45.88
2018-09-02T21:38:37.111Z,45.64
2018-09-02T21:41:04.957Z,45.21
2018-09-02T21:43:32.726Z,45.29
2018-09-02T21:46:00.516Z,45.28
2018-09-02T21:48:28.225Z,45.61
2018-09-02T21:50:55.981Z,46.04
2018-09-02T21:53:23.807Z,46.54
2018-09-02T21:55:51.487Z,46.57
2018-09-02T21:58:19.177Z,47.34
2018-09-02T22:00:46.961Z,46.67
2018-09-02T22:03:14.674Z,46.58
2018-09-02T22:05:42.473Z,46.93
2018-09-02T22:08:10.244Z,47.64
2018-09-02T22:10:37.951Z,46.67
2018-09-02T22:13:05.653Z,47.21
2018-09-02T22:15:33.369Z,47.62
2018-09-02T22:18:01.107Z,47.21
2018-09-02T22:20:28.794Z,47.85
2018-09-02T22:22:56.528Z,47.40
2018-09-02T22:25:24.224Z,47.50
2018-09-02T22:27:51.907Z,47.47
2018-09-02T22:30:19.655Z,48.22
2018-09-02T22:32:47.326Z,48.13
2018-09-02T22:35:15.009Z,48.36
2018-09-02T22:37:42.732Z,48.06
2018-09-02T22:40:10.750Z,48.30
2018-09-02T22:42:38.460Z,47.60
2018-09-02T22:45:06.253Z,48.01
2018-09-02T22:47:33.909Z,48.46
2018-09-02T22:50:01.611Z,48.28
2018-09-02T22:52:29.331Z,48.56
2018-09-02T22:54:56.995Z,50.83
2018-09-02T22:57:24.753Z,49.94
2018-09-02T22:59:52.419Z,50.60
2018-09-02T23:02:20.107Z,51.04
2018-09-02T23:04:47.794Z,51.68
2018-09-02T23:07:15.495Z,50.53
2018-09-02T23:09:43.231Z,51.18
2018-09-02T23:12:11.086Z,52.26
2018-09-02T23:14:38.810Z,52.01
2018-09-02T23:17:06.497Z,51.92
2018-09-02T23:19:34.213Z,51.69
2018-09-02T23:22:01.919Z,51.50
2018-09-02T23:24:29.598Z,51.09
2018-09-02T23:26:57.263Z,51.97
2018-09-02T23:29:24.938Z,51.47
2018-09-02T23:31:52.666Z,52.35
2018-09-02T23:34:20.432Z,51.96
2018-09-02T23:36:48.152Z,52.61
2018-09-02T23:39:15.834Z,52.82
2018-09-02T23:41:43.493Z,52.83
2018-09-02T23:44:11.179Z,53.15
2018-09-02T23:46:38.902Z,53.13
2018-09-02T23:49:06.566Z,53.02
2018-09-02T23:51:34.292Z,53.60
2018-09-02T23:54:01.988Z,54.40
2018-09-02T23:56:29.665Z,53.67
2018-09-02T23:58:57.349Z,54.05
